Terminal Aerodrome Forecast
Issued by NWS

Home | Current Version | Previous Version | Graphics & Text | Print | Product List | Glossary On
Versions: 1 2 3 4 5 6 7 8 9 10 11 12 13 14 15 16
000
FTUS42 KMHX 300500
TAFOAJ
TAF
KOAJ 300531Z 3006/3106 VRB03KT P6SM SCT100
     FM300900 03003KT 4SM BR SKC
     FM301200 06005KT P6SM SCT040
     FM310000 09004KT P6SM SCT040
      AMD LTD TO CLD VIS AND WIND=

USA.gov is the U.S. government's official web portal to all federal, state and local government web resources and services.